Time;durP1;ratioP1;P1;durP2;ratioP2;P2;SDS_P1;SDS_P2;PMS_P1;PMS_P2;Temp;Humidity;BMP_temperature;BMP_pressure;BME280_temperature;BME280_humidity;BME280_pressure;Samples;Min_cycle;Max_cycle;Signal;HPM_P1;HPM_P2
2021/01/16 00:00:21;;;;;;;42.93;21.13;;;;;;;;;;5009003;28;20033;-87
2021/01/16 00:02:46;;;;;;;44.07;20.97;;;;;;;;;;5013254;28;20393;-87
2021/01/16 00:05:15;;;;;;;41.73;19.90;;;;;;;;;;5019630;28;20018;-87
2021/01/16 00:07:41;;;;;;;46.37;20.97;;;;;;;;;;4994052;28;20637;-87
2021/01/16 00:10:06;;;;;;;47.37;21.40;;;;;;;;;;5010644;28;20026;-87
2021/01/16 00:12:31;;;;;;;41.60;20.47;;;;;;;;;;5010723;28;20122;-86
2021/01/16 00:14:56;;;;;;;43.67;21.17;;;;;;;;;;4994271;28;20101;-87
2021/01/16 00:17:21;;;;;;;41.73;20.63;;;;;;;;;;5009933;28;20109;-87
2021/01/16 00:19:47;;;;;;;42.47;21.43;;;;;;;;;;5009796;28;20014;-87
2021/01/16 00:22:12;;;;;;;48.07;20.90;;;;;;;;;;5010266;28;20546;-87
2021/01/16 00:24:37;;;;;;;42.30;20.70;;;;;;;;;;5010241;28;20081;-86
2021/01/16 00:27:02;;;;;;;47.03;21.43;;;;;;;;;;5009536;28;20168;-87
2021/01/16 00:29:27;;;;;;;47.70;21.93;;;;;;;;;;4988465;28;20869;-86
2021/01/16 00:31:53;;;;;;;50.50;23.67;;;;;;;;;;5010083;28;20030;-87
2021/01/16 00:34:18;;;;;;;49.30;21.90;;;;;;;;;;4994073;28;20069;-86
2021/01/16 00:36:43;;;;;;;46.47;21.77;;;;;;;;;;5023118;28;20032;-87
2021/01/16 00:39:08;;;;;;;46.53;22.10;;;;;;;;;;5010484;28;20021;-87
2021/01/16 00:41:34;;;;;;;44.70;21.80;;;;;;;;;;5010152;28;20536;-87
2021/01/16 00:43:59;;;;;;;49.33;21.03;;;;;;;;;;5010036;28;20029;-87
2021/01/16 00:46:25;;;;;;;48.43;22.43;;;;;;;;;;5019181;28;20525;-87
2021/01/16 00:48:50;;;;;;;44.73;21.33;;;;;;;;;;5014813;28;20029;-87
2021/01/16 00:51:15;;;;;;;44.53;21.73;;;;;;;;;;4996812;28;20030;-87
2021/01/16 00:53:40;;;;;;;50.77;22.67;;;;;;;;;;5000545;28;20022;-87
2021/01/16 00:56:05;;;;;;;50.93;21.77;;;;;;;;;;5005367;28;20026;-87
2021/01/16 00:58:31;;;;;;;43.37;21.73;;;;;;;;;;4981160;28;20023;-87
2021/01/16 01:00:56;;;;;;;47.17;22.53;;;;;;;;;;4991193;28;20018;-86
2021/01/16 01:03:22;;;;;;;46.93;21.60;;;;;;;;;;5009669;28;20026;-87
2021/01/16 01:05:48;;;;;;;45.13;21.60;;;;;;;;;;5009705;28;20386;-86
2021/01/16 01:08:13;;;;;;;44.83;20.80;;;;;;;;;;5009854;28;20034;-87
2021/01/16 01:10:38;;;;;;;40.83;21.67;;;;;;;;;;5009995;28;20363;-87
2021/01/16 01:13:03;;;;;;;39.03;20.63;;;;;;;;;;5009130;28;20062;-87
2021/01/16 01:15:29;;;;;;;49.13;20.83;;;;;;;;;;5008897;28;20045;-87
2021/01/16 01:17:55;;;;;;;46.33;21.10;;;;;;;;;;4993939;28;20026;-87
2021/01/16 01:20:20;;;;;;;44.43;21.27;;;;;;;;;;5009159;28;20057;-86
2021/01/16 01:22:47;;;;;;;42.80;21.00;;;;;;;;;;5009448;28;20023;-86
2021/01/16 01:25:12;;;;;;;42.07;20.23;;;;;;;;;;5015382;28;20105;-87
2021/01/16 01:27:37;;;;;;;42.50;19.60;;;;;;;;;;5016250;28;20101;-86
2021/01/16 01:30:04;;;;;;;41.23;20.00;;;;;;;;;;5026900;28;20029;-86
2021/01/16 01:32:29;;;;;;;37.10;18.80;;;;;;;;;;5009207;28;20022;-86
2021/01/16 01:34:54;;;;;;;48.80;21.07;;;;;;;;;;5009034;28;20109;-86
2021/01/16 01:37:19;;;;;;;46.63;20.97;;;;;;;;;;5022928;28;20114;-87
2021/01/16 01:39:44;;;;;;;47.13;22.17;;;;;;;;;;4993602;28;20427;-87
2021/01/16 01:42:13;;;;;;;44.43;21.30;;;;;;;;;;4978225;28;20019;-87
2021/01/16 01:44:38;;;;;;;42.90;21.47;;;;;;;;;;5008146;28;20014;-87
2021/01/16 01:47:04;;;;;;;43.33;21.20;;;;;;;;;;5007370;28;20049;-86
2021/01/16 01:49:29;;;;;;;45.53;20.33;;;;;;;;;;5013804;28;20021;-87
2021/01/16 01:51:54;;;;;;;41.70;19.10;;;;;;;;;;5015208;28;20500;-87
2021/01/16 01:54:20;;;;;;;42.70;20.50;;;;;;;;;;5007449;28;20029;-87
2021/01/16 01:56:47;;;;;;;44.60;21.93;;;;;;;;;;5001860;28;20022;-87
2021/01/16 01:59:13;;;;;;;42.70;21.40;;;;;;;;;;5024699;28;20366;-87
2021/01/16 02:01:44;;;;;;;39.60;20.63;;;;;;;;;;4990688;28;20021;-87
2021/01/16 02:04:09;;;;;;;46.83;20.27;;;;;;;;;;4992424;28;20027;-86
2021/01/16 02:06:34;;;;;;;42.93;20.07;;;;;;;;;;4999668;28;20106;-87
2021/01/16 02:08:59;;;;;;;42.50;20.00;;;;;;;;;;4980919;28;20496;-87
2021/01/16 02:11:25;;;;;;;42.90;19.60;;;;;;;;;;5005551;28;20026;-87
2021/01/16 02:13:50;;;;;;;45.60;21.37;;;;;;;;;;5004074;28;20054;-86
2021/01/16 02:16:38;;;;;;;41.33;20.33;;;;;;;;;;5011519;28;20026;-87
2021/01/16 02:19:05;;;;;;;43.07;19.23;;;;;;;;;;5005381;28;20045;-87
2021/01/16 02:21:32;;;;;;;44.50;19.57;;;;;;;;;;5008487;28;20034;-87
2021/01/16 02:24:03;;;;;;;41.47;19.60;;;;;;;;;;5008637;28;20387;-87
2021/01/16 02:26:51;;;;;;;52.35;19.95;;;;;;;;;;5022199;28;20022;-87
2021/01/16 02:29:17;;;;;;;44.07;19.90;;;;;;;;;;5020357;28;20025;-87
2021/01/16 02:31:46;;;;;;;40.43;20.27;;;;;;;;;;5008785;28;20114;-87
2021/01/16 02:34:13;;;;;;;45.20;20.63;;;;;;;;;;4980293;28;20128;-87
2021/01/16 02:36:38;;;;;;;37.93;19.17;;;;;;;;;;5008483;28;20068;-87
2021/01/16 02:39:09;;;;;;;41.63;19.67;;;;;;;;;;5008341;28;20841;-87
2021/01/16 02:41:57;;;;;;;39.33;19.67;;;;;;;;;;5008199;28;20080;-87
2021/01/16 02:44:28;;;;;;;39.53;19.07;;;;;;;;;;4995106;28;20109;-87
2021/01/16 02:46:57;;;;;;;42.07;19.23;;;;;;;;;;5008534;28;20022;-87
2021/01/16 02:49:22;;;;;;;39.83;19.07;;;;;;;;;;4986531;28;20026;-87
2021/01/16 02:52:07;;;;;;;47.13;19.50;;;;;;;;;;5007877;28;20041;-86
2021/01/16 02:54:36;;;;;;;44.40;21.53;;;;;;;;;;5008273;28;20110;-87
2021/01/16 02:57:05;;;;;;;46.70;19.43;;;;;;;;;;5008677;28;20374;-87
2021/01/16 02:59:37;;;;;;;37.13;18.77;;;;;;;;;;4992720;28;20053;-87
2021/01/16 03:02:03;;;;;;;43.00;19.88;;;;;;;;;;5004366;28;20014;-87
2021/01/16 03:04:28;;;;;;;40.80;19.23;;;;;;;;;;5002529;28;20116;-86
2021/01/16 03:06:54;;;;;;;45.37;20.53;;;;;;;;;;5018207;28;20018;-87
2021/01/16 03:09:19;;;;;;;38.70;19.27;;;;;;;;;;5011714;28;20022;-87
2021/01/16 03:11:44;;;;;;;38.37;18.47;;;;;;;;;;4991820;28;20113;-87
2021/01/16 03:14:11;;;;;;;38.90;18.97;;;;;;;;;;4991669;28;20473;-87
2021/01/16 03:16:38;;;;;;;39.03;18.60;;;;;;;;;;4993492;28;20515;-87
2021/01/16 03:19:06;;;;;;;42.20;19.43;;;;;;;;;;4996860;28;20121;-87
2021/01/16 03:21:31;;;;;;;41.90;19.80;;;;;;;;;;5007822;28;20516;-87
2021/01/16 03:23:56;;;;;;;40.23;18.90;;;;;;;;;;4994934;28;20030;-87
2021/01/16 03:26:21;;;;;;;34.97;18.10;;;;;;;;;;5011480;28;20045;-87
2021/01/16 03:28:47;;;;;;;39.53;18.10;;;;;;;;;;4995394;28;20466;-87
2021/01/16 03:31:12;;;;;;;40.80;18.57;;;;;;;;;;4995112;28;20068;-87
2021/01/16 03:33:37;;;;;;;35.97;18.27;;;;;;;;;;4994931;28;20076;-87
2021/01/16 03:36:02;;;;;;;40.57;18.17;;;;;;;;;;4994679;28;20069;-87
2021/01/16 03:38:27;;;;;;;35.23;18.40;;;;;;;;;;4994635;28;20022;-87
2021/01/16 03:40:53;;;;;;;40.67;18.67;;;;;;;;;;4996131;28;20018;-86
2021/01/16 03:43:18;;;;;;;37.57;18.37;;;;;;;;;;4994628;28;20011;-87
2021/01/16 03:45:43;;;;;;;35.70;18.47;;;;;;;;;;4996219;28;20037;-86
2021/01/16 03:48:08;;;;;;;36.63;17.97;;;;;;;;;;4996452;28;20474;-87
2021/01/16 03:50:34;;;;;;;42.33;19.77;;;;;;;;;;5009485;28;20031;-87
2021/01/16 03:52:59;;;;;;;43.80;18.67;;;;;;;;;;4993181;28;20129;-87
2021/01/16 03:55:24;;;;;;;37.73;18.63;;;;;;;;;;4993605;28;20121;-87
2021/01/16 03:57:49;;;;;;;39.53;16.73;;;;;;;;;;4994369;28;20418;-87
2021/01/16 04:00:15;;;;;;;38.80;18.10;;;;;;;;;;4993356;28;21131;-87
2021/01/16 04:02:40;;;;;;;35.23;17.73;;;;;;;;;;4993329;28;20050;-87
2021/01/16 04:05:06;;;;;;;36.97;18.43;;;;;;;;;;4993172;28;20022;-87
2021/01/16 04:07:31;;;;;;;41.87;18.83;;;;;;;;;;4994171;28;20466;-87
2021/01/16 04:09:56;;;;;;;38.83;17.93;;;;;;;;;;4993116;28;20018;-87
2021/01/16 04:12:22;;;;;;;36.77;18.33;;;;;;;;;;4992261;28;20057;-87
2021/01/16 04:14:47;;;;;;;37.20;18.43;;;;;;;;;;4992968;28;20030;-87
2021/01/16 04:17:12;;;;;;;41.17;18.20;;;;;;;;;;4992078;28;20552;-86
2021/01/16 04:19:38;;;;;;;35.30;15.93;;;;;;;;;;4993381;28;20018;-87
2021/01/16 04:22:03;;;;;;;34.23;16.90;;;;;;;;;;4994202;28;20061;-86
2021/01/16 04:24:28;;;;;;;36.40;17.30;;;;;;;;;;4994083;28;20026;-87
2021/01/16 04:26:53;;;;;;;38.17;18.07;;;;;;;;;;4993528;28;20026;-87
2021/01/16 04:29:19;;;;;;;34.80;17.37;;;;;;;;;;4993756;28;20093;-86
2021/01/16 04:31:44;;;;;;;36.17;17.70;;;;;;;;;;4993771;28;20080;-86
2021/01/16 04:34:09;;;;;;;38.43;16.93;;;;;;;;;;4993993;28;20029;-87
2021/01/16 04:36:35;;;;;;;35.60;17.33;;;;;;;;;;4993403;28;20022;-86
2021/01/16 04:39:00;;;;;;;34.33;17.67;;;;;;;;;;4993514;28;20037;-86
2021/01/16 04:41:27;;;;;;;36.00;17.37;;;;;;;;;;4993687;28;20029;-87
2021/01/16 04:43:52;;;;;;;37.43;16.63;;;;;;;;;;4993343;28;20091;-87
2021/01/16 04:46:18;;;;;;;35.93;17.77;;;;;;;;;;5009917;28;20041;-86
2021/01/16 04:48:47;;;;;;;38.77;17.83;;;;;;;;;;4993664;28;20053;-87
2021/01/16 04:51:13;;;;;;;33.00;16.30;;;;;;;;;;5010450;28;20018;-87
2021/01/16 04:53:41;;;;;;;40.73;17.73;;;;;;;;;;4993143;28;20033;-87
2021/01/16 04:56:07;;;;;;;37.77;17.30;;;;;;;;;;4993378;28;20053;-86
2021/01/16 04:58:33;;;;;;;35.53;16.30;;;;;;;;;;4993207;28;20050;-87
2021/01/16 05:01:01;;;;;;;38.23;18.03;;;;;;;;;;5006151;28;20014;-87
2021/01/16 05:03:27;;;;;;;35.43;17.23;;;;;;;;;;4994964;28;20129;-87
2021/01/16 05:05:52;;;;;;;33.80;16.53;;;;;;;;;;4993146;28;20125;-87
2021/01/16 05:08:19;;;;;;;43.87;18.13;;;;;;;;;;4993352;28;20110;-87
2021/01/16 05:10:44;;;;;;;35.97;18.10;;;;;;;;;;4993176;28;20081;-87
2021/01/16 05:13:14;;;;;;;34.47;17.40;;;;;;;;;;4992774;28;20034;-87
2021/01/16 05:15:40;;;;;;;34.80;17.80;;;;;;;;;;4993070;28;20051;-87
2021/01/16 05:18:09;;;;;;;39.40;17.13;;;;;;;;;;4993252;28;20091;-87
2021/01/16 05:20:36;;;;;;;33.37;17.43;;;;;;;;;;4994388;28;20153;-88
2021/01/16 05:23:17;;;;;;;39.70;17.27;;;;;;;;;;4992508;28;20025;-87
2021/01/16 05:25:49;;;;;;;33.93;16.83;;;;;;;;;;5010004;28;20054;-87
2021/01/16 05:28:18;;;;;;;39.05;17.70;;;;;;;;;;4994110;28;20105;-87
2021/01/16 05:30:45;;;;;;;33.93;17.00;;;;;;;;;;4994079;28;20038;-86
2021/01/16 05:33:11;;;;;;;39.03;16.60;;;;;;;;;;4993204;28;20029;-86
2021/01/16 05:35:36;;;;;;;33.97;16.57;;;;;;;;;;4990903;28;20470;-86
2021/01/16 05:38:01;;;;;;;32.97;16.50;;;;;;;;;;4991586;28;20030;-86
2021/01/16 05:40:28;;;;;;;34.63;16.53;;;;;;;;;;4991457;28;20026;-87
2021/01/16 05:42:54;;;;;;;36.87;17.60;;;;;;;;;;4999826;28;20104;-86
2021/01/16 05:45:20;;;;;;;37.73;18.10;;;;;;;;;;4992349;28;20050;-87
2021/01/16 05:47:46;;;;;;;35.03;17.53;;;;;;;;;;4991659;28;20017;-87
2021/01/16 05:50:11;;;;;;;40.47;17.63;;;;;;;;;;4992225;28;20429;-87
2021/01/16 05:52:39;;;;;;;36.03;17.97;;;;;;;;;;4994557;28;20018;-87
2021/01/16 05:55:05;;;;;;;36.97;17.60;;;;;;;;;;4993233;28;20578;-86
2021/01/16 05:57:30;;;;;;;36.93;17.77;;;;;;;;;;5008050;28;20108;-86
2021/01/16 05:59:59;;;;;;;34.13;17.10;;;;;;;;;;5006985;28;20093;-86
2021/01/16 06:02:29;;;;;;;34.43;17.40;;;;;;;;;;4994483;28;20050;-87
2021/01/16 06:04:54;;;;;;;33.10;16.33;;;;;;;;;;5008294;28;20034;-86
2021/01/16 06:07:21;;;;;;;37.90;17.67;;;;;;;;;;4993267;28;20030;-86
2021/01/16 06:09:46;;;;;;;39.73;17.90;;;;;;;;;;5008497;28;20378;-86
2021/01/16 06:12:12;;;;;;;35.43;17.57;;;;;;;;;;4993803;28;20077;-86
2021/01/16 06:14:44;;;;;;;36.70;16.27;;;;;;;;;;4993334;28;20026;-86
2021/01/16 06:17:13;;;;;;;38.30;16.58;;;;;;;;;;5008435;28;20015;-86
2021/01/16 06:19:43;;;;;;;32.07;16.53;;;;;;;;;;4992218;28;20540;-87
2021/01/16 06:22:09;;;;;;;43.10;19.07;;;;;;;;;;4991753;28;20018;-87
2021/01/16 06:24:35;;;;;;;35.90;18.57;;;;;;;;;;4992090;28;20025;-86
2021/01/16 06:27:01;;;;;;;37.03;18.03;;;;;;;;;;4992133;28;20076;-86
2021/01/16 06:29:29;;;;;;;35.97;17.80;;;;;;;;;;4992064;28;20629;-87
2021/01/16 06:32:05;;;;;;;34.17;16.83;;;;;;;;;;4992075;28;20034;-86
2021/01/16 06:34:31;;;;;;;31.63;16.23;;;;;;;;;;4993205;28;20027;-86
2021/01/16 06:37:13;;;;;;;33.33;16.17;;;;;;;;;;4991670;28;20389;-87
2021/01/16 06:39:40;;;;;;;39.80;17.58;;;;;;;;;;4992101;28;20019;-86
2021/01/16 06:42:07;;;;;;;36.50;17.03;;;;;;;;;;4992037;28;20026;-86
2021/01/16 06:44:32;;;;;;;38.67;17.67;;;;;;;;;;4993143;28;20056;-86
2021/01/16 06:46:58;;;;;;;32.50;16.57;;;;;;;;;;4991706;28;20633;-87
2021/01/16 06:49:24;;;;;;;41.60;19.63;;;;;;;;;;4991576;28;20033;-86
2021/01/16 06:51:50;;;;;;;48.07;21.13;;;;;;;;;;4995472;28;20478;-86
2021/01/16 06:54:20;;;;;;;38.00;19.07;;;;;;;;;;4995931;28;20057;-87
2021/01/16 06:56:48;;;;;;;35.60;18.43;;;;;;;;;;5010955;28;20014;-86
2021/01/16 06:59:13;;;;;;;34.53;17.57;;;;;;;;;;5012023;28;20058;-86
2021/01/16 07:01:39;;;;;;;35.40;17.67;;;;;;;;;;4995616;28;20415;-86
2021/01/16 07:04:04;;;;;;;34.23;16.57;;;;;;;;;;5007104;28;20040;-86
2021/01/16 07:06:44;;;;;;;33.57;17.13;;;;;;;;;;5014577;28;20022;-86
2021/01/16 07:09:09;;;;;;;40.10;17.73;;;;;;;;;;4993794;28;20026;-86
2021/01/16 07:11:41;;;;;;;33.87;16.77;;;;;;;;;;4992556;28;20029;-86
2021/01/16 07:14:09;;;;;;;36.17;17.17;;;;;;;;;;5001507;28;20031;-86
2021/01/16 07:16:34;;;;;;;36.80;16.53;;;;;;;;;;5015196;28;20041;-86
2021/01/16 07:18:59;;;;;;;35.90;17.37;;;;;;;;;;4996497;28;20109;-86
2021/01/16 07:21:24;;;;;;;32.37;15.83;;;;;;;;;;4995246;28;20030;-86
2021/01/16 07:23:50;;;;;;;33.90;17.03;;;;;;;;;;5011642;28;20065;-86
2021/01/16 07:26:15;;;;;;;35.37;16.10;;;;;;;;;;4994764;28;20109;-87
2021/01/16 07:28:42;;;;;;;37.03;18.13;;;;;;;;;;5011399;28;20118;-86
2021/01/16 07:31:07;;;;;;;35.53;17.67;;;;;;;;;;5010575;28;20034;-87
2021/01/16 07:33:33;;;;;;;35.37;16.33;;;;;;;;;;5011630;28;20022;-86
2021/01/16 07:36:00;;;;;;;33.43;17.30;;;;;;;;;;5010173;28;20378;-85
2021/01/16 07:38:25;;;;;;;32.50;16.27;;;;;;;;;;4994274;28;20092;-87
2021/01/16 07:40:54;;;;;;;32.63;16.77;;;;;;;;;;5011310;28;20458;-86
2021/01/16 07:43:28;;;;;;;40.97;16.87;;;;;;;;;;4994920;28;20525;-87
2021/01/16 07:45:58;;;;;;;34.90;16.80;;;;;;;;;;5011106;28;20048;-86
2021/01/16 07:48:27;;;;;;;34.03;16.63;;;;;;;;;;4994484;28;20405;-87
2021/01/16 07:50:52;;;;;;;34.23;16.63;;;;;;;;;;4995818;28;20065;-86
2021/01/16 07:53:25;;;;;;;35.97;17.37;;;;;;;;;;4995744;28;20053;-86
2021/01/16 07:56:00;;;;;;;31.97;16.23;;;;;;;;;;5010856;28;20034;-87
2021/01/16 07:58:31;;;;;;;35.80;17.67;;;;;;;;;;4991106;28;20035;-87
2021/01/16 08:01:02;;;;;;;38.03;19.27;;;;;;;;;;5018809;28;20022;-86
2021/01/16 08:03:45;;;;;;;36.57;17.63;;;;;;;;;;5010164;28;20081;-87
2021/01/16 08:06:19;;;;;;;36.60;17.00;;;;;;;;;;5010204;28;20034;-86
2021/01/16 08:08:44;;;;;;;37.97;17.77;;;;;;;;;;4991894;28;20663;-86
2021/01/16 08:11:11;;;;;;;40.90;17.70;;;;;;;;;;5010774;28;20057;-86
2021/01/16 08:13:36;;;;;;;33.40;15.27;;;;;;;;;;5010437;28;20049;-86
2021/01/16 08:16:02;;;;;;;30.63;15.30;;;;;;;;;;4994351;28;20014;-86
2021/01/16 08:18:29;;;;;;;34.60;15.40;;;;;;;;;;4994613;28;20885;-86
2021/01/16 08:20:55;;;;;;;28.97;15.10;;;;;;;;;;5009549;28;20026;-86
2021/01/16 08:23:21;;;;;;;32.77;14.93;;;;;;;;;;5009843;28;20045;-86
2021/01/16 08:25:46;;;;;;;31.37;15.03;;;;;;;;;;5009755;28;20581;-86
2021/01/16 08:28:13;;;;;;;36.47;14.67;;;;;;;;;;4993284;28;20022;-86
2021/01/16 08:30:39;;;;;;;33.73;14.07;;;;;;;;;;5010123;28;20018;-86
2021/01/16 08:33:10;;;;;;;35.20;14.30;;;;;;;;;;4994623;28;20022;-86
2021/01/16 08:35:44;;;;;;;28.73;13.93;;;;;;;;;;5016610;28;20026;-86
2021/01/16 08:38:15;;;;;;;30.23;14.07;;;;;;;;;;4989353;28;20090;-86
2021/01/16 08:40:41;;;;;;;29.80;14.43;;;;;;;;;;5009896;28;20080;-86
2021/01/16 08:43:07;;;;;;;32.93;14.73;;;;;;;;;;4986368;28;20015;-86
2021/01/16 08:45:32;;;;;;;28.73;13.87;;;;;;;;;;4994247;28;20025;-86
2021/01/16 08:47:58;;;;;;;29.73;13.47;;;;;;;;;;5010151;28;20018;-86
2021/01/16 08:50:28;;;;;;;30.43;13.37;;;;;;;;;;4993331;28;20034;-87
2021/01/16 08:52:53;;;;;;;27.87;13.97;;;;;;;;;;5016481;28;20703;-87
2021/01/16 08:55:24;;;;;;;31.37;13.83;;;;;;;;;;4993283;28;20168;-86
2021/01/16 08:57:50;;;;;;;28.43;13.87;;;;;;;;;;5009438;28;20045;-86
2021/01/16 09:00:16;;;;;;;28.53;13.27;;;;;;;;;;4995246;28;20018;-86
2021/01/16 09:02:42;;;;;;;31.37;13.83;;;;;;;;;;4993588;28;20031;-86
2021/01/16 09:05:24;;;;;;;28.77;13.60;;;;;;;;;;4989943;28;20022;-86
2021/01/16 09:07:53;;;;;;;28.37;13.77;;;;;;;;;;4992425;28;20497;-86
2021/01/16 09:10:22;;;;;;;31.80;13.60;;;;;;;;;;5009447;28;20354;-86
2021/01/16 09:12:48;;;;;;;28.17;12.43;;;;;;;;;;4992940;28;20018;-86
2021/01/16 09:15:18;;;;;;;27.60;12.83;;;;;;;;;;4992844;28;20144;-86
2021/01/16 09:17:58;;;;;;;25.77;12.83;;;;;;;;;;4993180;28;20573;-87
2021/01/16 09:20:24;;;;;;;25.57;13.33;;;;;;;;;;4992866;28;20050;-86
2021/01/16 09:22:49;;;;;;;33.27;13.63;;;;;;;;;;4986381;28;20078;-86
2021/01/16 09:25:25;;;;;;;32.93;13.07;;;;;;;;;;4982880;28;20019;-86
2021/01/16 09:27:51;;;;;;;30.40;13.43;;;;;;;;;;4979381;28;20019;-86
2021/01/16 09:30:23;;;;;;;32.90;12.70;;;;;;;;;;5001653;28;20030;-86
2021/01/16 09:32:48;;;;;;;;;;;;;;;;;;5009578;28;20019;-86
2021/01/16 09:35:32;;;;;;;25.42;12.98;;;;;;;;;;5009152;28;19928;-87
2021/01/16 09:37:58;;;;;;;27.00;13.47;;;;;;;;;;4992394;28;20360;-87
2021/01/16 09:40:33;;;;;;;26.07;12.57;;;;;;;;;;4992735;28;20023;-86
2021/01/16 09:42:58;;;;;;;27.83;13.30;;;;;;;;;;4992678;28;20019;-87
2021/01/16 09:45:43;;;;;;;27.90;12.40;;;;;;;;;;4992711;28;20084;-86
2021/01/16 09:48:08;;;;;;;27.20;13.20;;;;;;;;;;4992293;28;20425;-86
2021/01/16 09:50:34;;;;;;;30.40;12.30;;;;;;;;;;5003796;28;20018;-87
2021/01/16 09:53:03;;;;;;;29.77;14.07;;;;;;;;;;5011037;28;20454;-86
2021/01/16 09:55:32;;;;;;;27.70;12.87;;;;;;;;;;4992258;28;20022;-86
2021/01/16 09:57:58;;;;;;;28.80;13.23;;;;;;;;;;4992237;28;20137;-86
2021/01/16 10:00:24;;;;;;;24.70;12.00;;;;;;;;;;4992736;28;20045;-86
2021/01/16 10:02:56;;;;;;;25.03;11.77;;;;;;;;;;4992497;28;20018;-86
2021/01/16 10:05:27;;;;;;;25.88;12.70;;;;;;;;;;4992307;28;20033;-86
2021/01/16 10:07:52;;;;;;;22.17;10.70;;;;;;;;;;4978749;28;20027;-86
2021/01/16 10:10:17;;;;;;;23.47;10.67;;;;;;;;;;4988727;28;20037;-87
2021/01/16 10:12:44;;;;;;;19.07;8.67;;;;;;;;;;4984043;28;20026;-87
2021/01/16 10:15:18;;;;;;;21.83;10.70;;;;;;;;;;4992169;28;20423;-87
2021/01/16 10:17:51;;;;;;;25.90;10.67;;;;;;;;;;4995562;28;20390;-86
2021/01/16 10:20:16;;;;;;;;;;;;;;;;;;4992892;28;20019;-86
2021/01/16 10:22:52;;;;;;;22.33;9.63;;;;;;;;;;5008354;28;19912;-86
2021/01/16 10:25:18;;;;;;;20.17;9.93;;;;;;;;;;4995287;28;20018;-86
2021/01/16 10:27:43;;;;;;;16.67;7.80;;;;;;;;;;4998478;28;20022;-86
2021/01/16 10:30:22;;;;;;;17.03;9.03;;;;;;;;;;4998406;28;20069;-86
2021/01/16 10:32:48;;;;;;;19.80;8.97;;;;;;;;;;4998433;28;20018;-86
2021/01/16 10:35:24;;;;;;;20.07;10.33;;;;;;;;;;5009470;28;20547;-86
2021/01/16 10:37:49;;;;;;;17.37;9.67;;;;;;;;;;5005777;28;20026;-86
2021/01/16 10:40:15;;;;;;;16.83;8.53;;;;;;;;;;5008958;28;20504;-86
2021/01/16 10:42:45;;;;;;;19.83;9.97;;;;;;;;;;5018410;28;20018;-86
2021/01/16 10:45:11;;;;;;;16.40;8.70;;;;;;;;;;4998224;28;20018;-86
2021/01/16 10:47:38;;;;;;;17.47;9.90;;;;;;;;;;4998359;28;20018;-86
2021/01/16 10:50:05;;;;;;;16.33;9.30;;;;;;;;;;4991835;28;20091;-86
2021/01/16 10:52:31;;;;;;;18.37;9.77;;;;;;;;;;4992023;28;20026;-86
2021/01/16 10:54:56;;;;;;;15.60;7.00;;;;;;;;;;5014554;28;20485;-86
2021/01/16 10:57:25;;;;;;;18.50;9.63;;;;;;;;;;4997558;28;20045;-87
2021/01/16 10:59:52;;;;;;;16.53;8.77;;;;;;;;;;5002991;28;20062;-86
2021/01/16 11:02:17;;;;;;;18.07;9.43;;;;;;;;;;4997405;28;20061;-85
2021/01/16 11:04:44;;;;;;;21.70;10.30;;;;;;;;;;5013818;28;20029;-85
2021/01/16 11:07:10;;;;;;;18.87;9.93;;;;;;;;;;5014120;28;20105;-85
2021/01/16 11:09:36;;;;;;;20.80;8.73;;;;;;;;;;4998317;28;20054;-86
2021/01/16 11:12:02;;;;;;;16.73;8.93;;;;;;;;;;5007508;28;20034;-85
2021/01/16 11:14:53;;;;;;;17.57;9.07;;;;;;;;;;5013878;28;20113;-86
2021/01/16 11:17:19;;;;;;;19.43;8.97;;;;;;;;;;4999124;28;21725;-86
2021/01/16 11:19:46;;;;;;;18.23;8.53;;;;;;;;;;5019941;28;20018;-86
2021/01/16 11:22:12;;;;;;;19.80;9.43;;;;;;;;;;4998968;28;20049;-86
2021/01/16 11:24:53;;;;;;;17.87;9.07;;;;;;;;;;4998374;28;20017;-86
2021/01/16 11:27:19;;;;;;;20.17;8.00;;;;;;;;;;4997800;28;20073;-86
2021/01/16 11:29:45;;;;;;;16.07;8.77;;;;;;;;;;4998132;28;20109;-87
2021/01/16 11:32:19;;;;;;;17.13;9.97;;;;;;;;;;4998215;28;20060;-91
2021/01/16 11:35:03;;;;;;;20.57;10.10;;;;;;;;;;4998297;28;20450;-88
2021/01/16 11:37:47;;;;;;;25.77;10.70;;;;;;;;;;4989337;28;20033;-87
2021/01/16 11:40:24;;;;;;;19.50;9.87;;;;;;;;;;5004473;28;20032;-87
2021/01/16 11:42:51;;;;;;;21.07;11.50;;;;;;;;;;4996716;28;20016;-87
2021/01/16 11:45:17;;;;;;;19.77;10.53;;;;;;;;;;4994206;28;20405;-84
2021/01/16 11:47:48;;;;;;;20.00;10.27;;;;;;;;;;5011008;28;20025;-87
2021/01/16 11:50:13;;;;;;;24.63;11.30;;;;;;;;;;5002578;28;20026;-86
2021/01/16 11:52:38;;;;;;;21.70;10.80;;;;;;;;;;5006747;28;20081;-87
2021/01/16 11:55:10;;;;;;;19.30;7.87;;;;;;;;;;4991163;28;20069;-86
2021/01/16 11:57:35;;;;;;;21.35;10.95;;;;;;;;;;5011961;28;20430;-86
2021/01/16 12:00:01;;;;;;;18.67;8.43;;;;;;;;;;5008794;28;20042;-86
2021/01/16 12:02:27;;;;;;;22.87;13.03;;;;;;;;;;5010528;28;20033;-87
2021/01/16 12:04:52;;;;;;;8.67;3.77;;;;;;;;;;4992496;28;20101;-87
2021/01/16 12:07:18;;;;;;;24.40;11.87;;;;;;;;;;5013312;28;20490;-86
2021/01/16 12:09:47;;;;;;;22.20;11.13;;;;;;;;;;5010334;28;20026;-87
2021/01/16 12:12:12;;;;;;;18.17;9.50;;;;;;;;;;4996513;28;20026;-87
2021/01/16 12:14:38;;;;;;;23.27;12.50;;;;;;;;;;4993804;28;20022;-84
2021/01/16 12:17:04;;;;;;;24.17;12.30;;;;;;;;;;5009749;28;20030;-84
2021/01/16 12:19:31;;;;;;;22.07;12.57;;;;;;;;;;4992832;28;20497;-84
2021/01/16 12:22:01;;;;;;;22.50;10.50;;;;;;;;;;5004408;28;20037;-84
2021/01/16 12:24:26;;;;;;;22.33;10.40;;;;;;;;;;4993968;28;20030;-84
2021/01/16 12:26:53;;;;;;;16.73;6.57;;;;;;;;;;4993305;28;20030;-84
2021/01/16 12:29:22;;;;;;;20.60;8.70;;;;;;;;;;4993460;28;20038;-85
2021/01/16 12:32:00;;;;;;;22.70;11.03;;;;;;;;;;4993572;28;20041;-84
2021/01/16 12:34:25;;;;;;;22.00;11.80;;;;;;;;;;4994970;28;20029;-84
2021/01/16 12:36:50;;;;;;;22.77;10.50;;;;;;;;;;4992988;28;20030;-84
2021/01/16 12:39:15;;;;;;;22.70;9.97;;;;;;;;;;4992941;28;20434;-83
2021/01/16 12:41:40;;;;;;;19.50;9.40;;;;;;;;;;4993079;28;20081;-84
2021/01/16 12:44:06;;;;;;;23.37;10.43;;;;;;;;;;5009739;28;20029;-82
2021/01/16 12:46:31;;;;;;;14.20;6.17;;;;;;;;;;4994602;28;20022;-84
2021/01/16 12:48:56;;;;;;;24.23;10.83;;;;;;;;;;4993262;28;20037;-84
2021/01/16 12:51:22;;;;;;;28.33;9.80;;;;;;;;;;4992786;28;20026;-84
2021/01/16 12:53:47;;;;;;;23.27;10.30;;;;;;;;;;4993188;28;20471;-84
2021/01/16 12:56:14;;;;;;;23.33;11.93;;;;;;;;;;4993355;28;20026;-84
2021/01/16 12:58:39;;;;;;;24.77;11.97;;;;;;;;;;4988505;28;20497;-84
2021/01/16 13:01:05;;;;;;;25.90;12.73;;;;;;;;;;5011491;28;20022;-84
2021/01/16 13:03:30;;;;;;;25.73;13.27;;;;;;;;;;4995059;28;20023;-84
2021/01/16 13:05:55;;;;;;;21.83;10.27;;;;;;;;;;5017453;28;20114;-84
2021/01/16 13:08:21;;;;;;;19.80;8.53;;;;;;;;;;4992758;28;20018;-84
2021/01/16 13:10:52;;;;;;;16.80;8.13;;;;;;;;;;5009442;28;20053;-84
2021/01/16 13:13:18;;;;;;;23.30;12.60;;;;;;;;;;4992519;28;20030;-84
2021/01/16 13:15:44;;;;;;;25.67;12.17;;;;;;;;;;5009299;28;20027;-84
2021/01/16 13:18:11;;;;;;;24.50;11.80;;;;;;;;;;4992282;28;20113;-84
2021/01/16 13:20:44;;;;;;;24.37;13.13;;;;;;;;;;4992997;28;20041;-84
2021/01/16 13:23:09;;;;;;;27.20;13.50;;;;;;;;;;4992862;28;20481;-84
2021/01/16 13:25:34;;;;;;;21.70;11.97;;;;;;;;;;4994255;28;20037;-84
2021/01/16 13:28:04;;;;;;;21.60;12.07;;;;;;;;;;4992357;28;20046;-83
2021/01/16 13:30:30;;;;;;;23.20;11.73;;;;;;;;;;4992413;28;20026;-84
2021/01/16 13:32:56;;;;;;;17.40;6.80;;;;;;;;;;4992199;28;20029;-84
2021/01/16 13:35:29;;;;;;;22.70;10.40;;;;;;;;;;4992603;28;20394;-84
2021/01/16 13:37:54;;;;;;;20.33;9.17;;;;;;;;;;4992227;28;20081;-85
2021/01/16 13:40:22;;;;;;;27.60;11.37;;;;;;;;;;5008991;28;20053;-84
2021/01/16 13:42:48;;;;;;;16.07;7.50;;;;;;;;;;4993594;28;20370;-85
2021/01/16 13:45:18;;;;;;;20.70;9.13;;;;;;;;;;4992135;28;20116;-85
2021/01/16 13:47:52;;;;;;;21.37;10.33;;;;;;;;;;5008826;28;20045;-84
2021/01/16 13:50:19;;;;;;;19.73;8.93;;;;;;;;;;4991797;28;20034;-84
2021/01/16 13:52:54;;;;;;;21.10;12.83;;;;;;;;;;4992529;28;20029;-84
2021/01/16 13:55:19;;;;;;;26.07;12.30;;;;;;;;;;4987474;28;20029;-84
2021/01/16 13:58:04;;;;;;;23.60;12.23;;;;;;;;;;5008231;28;20023;-84
2021/01/16 14:00:43;;;;;;;25.53;12.03;;;;;;;;;;4992471;28;20030;-84
2021/01/16 14:03:09;;;;;;;29.97;14.33;;;;;;;;;;4992136;28;20034;-84
2021/01/16 14:05:34;;;;;;;25.43;10.23;;;;;;;;;;4991884;28;20026;-84
2021/01/16 14:08:09;;;;;;;21.70;10.93;;;;;;;;;;5008300;28;20025;-84
2021/01/16 14:10:34;;;;;;;27.87;15.60;;;;;;;;;;4992099;28;20073;-84
2021/01/16 14:13:03;;;;;;;31.00;15.50;;;;;;;;;;5008264;28;20022;-84
2021/01/16 14:15:28;;;;;;;28.13;11.80;;;;;;;;;;5008070;28;20053;-84
2021/01/16 14:17:53;;;;;;;28.50;13.87;;;;;;;;;;4992979;28;20508;-84
2021/01/16 14:20:28;;;;;;;31.13;15.07;;;;;;;;;;4991525;28;20023;-84